sensor_id;sensor_type;location;lat;lon;timestamp;pressure;altitude;pressure_sealevel;temperature;humidity
3294;BME280;1659;51.470;6.770;2023-05-11T00:01:27;101218.47;;;13.25;100.00
3294;BME280;1659;51.470;6.770;2023-05-11T00:03:53;101222.88;;;13.24;100.00
3294;BME280;1659;51.470;6.770;2023-05-11T00:06:21;101223.78;;;13.23;100.00
3294;BME280;1659;51.470;6.770;2023-05-11T00:08:47;101215.00;;;13.21;100.00
3294;BME280;1659;51.470;6.770;2023-05-11T00:11:15;101218.56;;;13.20;100.00
3294;BME280;1659;51.470;6.770;2023-05-11T00:13:42;101210.66;;;13.17;100.00
3294;BME280;1659;51.470;6.770;2023-05-11T00:16:09;101214.25;;;13.14;100.00
3294;BME280;1659;51.470;6.770;2023-05-11T00:18:36;101216.97;;;13.11;100.00
3294;BME280;1659;51.470;6.770;2023-05-11T00:21:02;101212.56;;;13.10;100.00
3294;BME280;1659;51.470;6.770;2023-05-11T00:23:29;101218.78;;;13.09;100.00
3294;BME280;1659;51.470;6.770;2023-05-11T00:25:55;101222.38;;;13.07;100.00
3294;BME280;1659;51.470;6.770;2023-05-11T00:28:23;101230.34;;;13.07;100.00
3294;BME280;1659;51.470;6.770;2023-05-11T00:30:54;101230.28;;;13.10;100.00
3294;BME280;1659;51.470;6.770;2023-05-11T00:33:21;101223.19;;;13.10;100.00
3294;BME280;1659;51.470;6.770;2023-05-11T00:35:48;101224.94;;;13.11;100.00
3294;BME280;1659;51.470;6.770;2023-05-11T00:38:14;101225.78;;;13.13;100.00
3294;BME280;1659;51.470;6.770;2023-05-11T00:40:41;101225.72;;;13.16;100.00
3294;BME280;1659;51.470;6.770;2023-05-11T00:43:07;101220.38;;;13.18;100.00
3294;BME280;1659;51.470;6.770;2023-05-11T00:45:35;101221.22;;;13.20;100.00
3294;BME280;1659;51.470;6.770;2023-05-11T00:48:04;101222.97;;;13.21;100.00
3294;BME280;1659;51.470;6.770;2023-05-11T00:50:31;101227.38;;;13.20;100.00
3294;BME280;1659;51.470;6.770;2023-05-11T00:52:57;101223.84;;;13.20;100.00
3294;BME280;1659;51.470;6.770;2023-05-11T00:55:26;101224.75;;;13.19;100.00
3294;BME280;1659;51.470;6.770;2023-05-11T00:57:53;101231.81;;;13.20;100.00
3294;BME280;1659;51.470;6.770;2023-05-11T01:00:19;101232.72;;;13.19;100.00
3294;BME280;1659;51.470;6.770;2023-05-11T01:02:48;101227.41;;;13.19;100.00
3294;BME280;1659;51.470;6.770;2023-05-11T01:05:14;101226.56;;;13.17;100.00
3294;BME280;1659;51.470;6.770;2023-05-11T01:07:47;101228.38;;;13.16;100.00
3294;BME280;1659;51.470;6.770;2023-05-11T01:10:22;101232.88;;;13.13;100.00
3294;BME280;1659;51.470;6.770;2023-05-11T01:12:56;101231.09;;;13.12;100.00
3294;BME280;1659;51.470;6.770;2023-05-11T01:15:28;101230.31;;;13.08;100.00
3294;BME280;1659;51.470;6.770;2023-05-11T01:18:10;101233.91;;;13.06;100.00
3294;BME280;1659;51.470;6.770;2023-05-11T01:20:37;101236.63;;;13.02;100.00
3294;BME280;1659;51.470;6.770;2023-05-11T01:23:21;101233.19;;;12.97;100.00
3294;BME280;1659;51.470;6.770;2023-05-11T01:26:08;101235.94;;;12.93;100.00
3294;BME280;1659;51.470;6.770;2023-05-11T01:28:54;101238.59;;;12.91;100.00
3294;BME280;1659;51.470;6.770;2023-05-11T01:31:29;101248.38;;;12.89;100.00
3294;BME280;1659;51.470;6.770;2023-05-11T01:33:57;101241.34;;;12.88;100.00
3294;BME280;1659;51.470;6.770;2023-05-11T01:36:28;101234.22;;;12.90;100.00
3294;BME280;1659;51.470;6.770;2023-05-11T01:39:00;101240.41;;;12.91;100.00
3294;BME280;1659;51.470;6.770;2023-05-11T01:41:28;101238.59;;;12.93;100.00
3294;BME280;1659;51.470;6.770;2023-05-11T01:43:59;101238.53;;;12.96;100.00
3294;BME280;1659;51.470;6.770;2023-05-11T01:46:31;101239.34;;;12.99;100.00
3294;BME280;1659;51.470;6.770;2023-05-11T01:49:00;101234.84;;;13.01;100.00
3294;BME280;1659;51.470;6.770;2023-05-11T01:51:31;101237.50;;;13.01;100.00
3294;BME280;1659;51.470;6.770;2023-05-11T01:53:59;101247.25;;;13.01;100.00
3294;BME280;1659;51.470;6.770;2023-05-11T01:56:27;101249.91;;;13.01;100.00
3294;BME280;1659;51.470;6.770;2023-05-11T01:58:55;101254.38;;;12.99;100.00
3294;BME280;1659;51.470;6.770;2023-05-11T02:01:23;101257.09;;;12.96;100.00
3294;BME280;1659;51.470;6.770;2023-05-11T02:03:52;101253.63;;;12.92;100.00
3294;BME280;1659;51.470;6.770;2023-05-11T02:06:21;101255.44;;;12.92;100.00
3294;BME280;1659;51.470;6.770;2023-05-11T02:08:49;101250.09;;;12.93;100.00
3294;BME280;1659;51.470;6.770;2023-05-11T02:11:18;101250.94;;;12.94;100.00
3294;BME280;1659;51.470;6.770;2023-05-11T02:13:48;101256.25;;;12.94;100.00
3294;BME280;1659;51.470;6.770;2023-05-11T02:16:17;101252.72;;;12.95;100.00
3294;BME280;1659;51.470;6.770;2023-05-11T02:18:44;101255.31;;;12.96;100.00
3294;BME280;1659;51.470;6.770;2023-05-11T02:21:14;101257.91;;;12.99;100.00
3294;BME280;1659;51.470;6.770;2023-05-11T02:23:42;101258.75;;;13.00;100.00
3294;BME280;1659;51.470;6.770;2023-05-11T02:26:11;101258.75;;;13.00;100.00
3294;BME280;1659;51.470;6.770;2023-05-11T02:28:40;101260.53;;;13.01;100.00
3294;BME280;1659;51.470;6.770;2023-05-11T02:31:11;101259.59;;;13.03;100.00
3294;BME280;1659;51.470;6.770;2023-05-11T02:33:49;101258.69;;;13.04;100.00
3294;BME280;1659;51.470;6.770;2023-05-11T02:36:20;101261.31;;;13.06;100.00
3294;BME280;1659;51.470;6.770;2023-05-11T02:38:48;101259.53;;;13.05;100.00
3294;BME280;1659;51.470;6.770;2023-05-11T02:41:20;101264.94;;;13.02;100.00
3294;BME280;1659;51.470;6.770;2023-05-11T02:43:50;101269.44;;;12.98;100.00
3294;BME280;1659;51.470;6.770;2023-05-11T02:46:20;101265.06;;;12.96;100.00
3294;BME280;1659;51.470;6.770;2023-05-11T02:48:51;101273.97;;;12.93;100.00
3294;BME280;1659;51.470;6.770;2023-05-11T02:51:23;101271.38;;;12.90;100.00
3294;BME280;1659;51.470;6.770;2023-05-11T02:53:53;101265.25;;;12.87;100.00
3294;BME280;1659;51.470;6.770;2023-05-11T02:56:22;101265.34;;;12.82;100.00
3294;BME280;1659;51.470;6.770;2023-05-11T02:58:49;101269.81;;;12.80;100.00
3294;BME280;1659;51.470;6.770;2023-05-11T03:01:16;101260.94;;;12.81;100.00
3294;BME280;1659;51.470;6.770;2023-05-11T03:03:42;101268.97;;;12.78;100.00
3294;BME280;1659;51.470;6.770;2023-05-11T03:06:09;101267.19;;;12.77;100.00
3294;BME280;1659;51.470;6.770;2023-05-11T03:08:37;101261.03;;;12.76;100.00
3294;BME280;1659;51.470;6.770;2023-05-11T03:11:04;101260.16;;;12.76;100.00
3294;BME280;1659;51.470;6.770;2023-05-11T03:13:31;101263.63;;;12.79;100.00
3294;BME280;1659;51.470;6.770;2023-05-11T03:15:59;101254.72;;;12.82;100.00
3294;BME280;1659;51.470;6.770;2023-05-11T03:18:27;101256.47;;;12.83;100.00
3294;BME280;1659;51.470;6.770;2023-05-11T03:20:56;101253.81;;;12.84;100.00
3294;BME280;1659;51.470;6.770;2023-05-11T03:23:24;101251.13;;;12.86;100.00
3294;BME280;1659;51.470;6.770;2023-05-11T03:25:53;101250.22;;;12.85;100.00
3294;BME280;1659;51.470;6.770;2023-05-11T03:28:21;101243.19;;;12.84;100.00
3294;BME280;1659;51.470;6.770;2023-05-11T03:30:51;101237.00;;;12.84;100.00
3294;BME280;1659;51.470;6.770;2023-05-11T03:33:18;101240.53;;;12.84;100.00
3294;BME280;1659;51.470;6.770;2023-05-11T03:35:46;101229.06;;;12.82;100.00
3294;BME280;1659;51.470;6.770;2023-05-11T03:38:15;101225.53;;;12.83;100.00
3294;BME280;1659;51.470;6.770;2023-05-11T03:40:42;101229.97;;;12.83;100.00
3294;BME280;1659;51.470;6.770;2023-05-11T03:43:14;101220.31;;;12.79;100.00
3294;BME280;1659;51.470;6.770;2023-05-11T03:45:42;101216.81;;;12.77;100.00
3294;BME280;1659;51.470;6.770;2023-05-11T03:48:10;101219.53;;;12.74;100.00
3294;BME280;1659;51.470;6.770;2023-05-11T03:50:37;101221.34;;;12.72;100.00
3294;BME280;1659;51.470;6.770;2023-05-11T03:53:04;101217.84;;;12.70;100.00
3294;BME280;1659;51.470;6.770;2023-05-11T03:55:31;101228.44;;;12.70;100.00
3294;BME280;1659;51.470;6.770;2023-05-11T03:57:58;101226.72;;;12.69;100.00
3294;BME280;1659;51.470;6.770;2023-05-11T04:00:26;101221.44;;;12.69;100.00
3294;BME280;1659;51.470;6.770;2023-05-11T04:02:53;101224.97;;;12.68;100.00
3294;BME280;1659;51.470;6.770;2023-05-11T04:05:19;101227.66;;;12.66;100.00
3294;BME280;1659;51.470;6.770;2023-05-11T04:07:46;101228.59;;;12.63;100.00
3294;BME280;1659;51.470;6.770;2023-05-11T04:10:13;101227.72;;;12.61;100.00
3294;BME280;1659;51.470;6.770;2023-05-11T04:12:39;101229.56;;;12.58;100.00
3294;BME280;1659;51.470;6.770;2023-05-11T04:15:06;101233.16;;;12.55;100.00
3294;BME280;1659;51.470;6.770;2023-05-11T04:17:34;101229.69;;;12.52;100.00
3294;BME280;1659;51.470;6.770;2023-05-11T04:20:01;101232.41;;;12.49;100.00
3294;BME280;1659;51.470;6.770;2023-05-11T04:22:27;101237.72;;;12.47;100.00
3294;BME280;1659;51.470;6.770;2023-05-11T04:24:54;101248.34;;;12.47;100.00
3294;BME280;1659;51.470;6.770;2023-05-11T04:27:21;101243.06;;;12.45;100.00
3294;BME280;1659;51.470;6.770;2023-05-11T04:29:47;101251.91;;;12.46;100.00
3294;BME280;1659;51.470;6.770;2023-05-11T04:32:14;101240.38;;;12.47;100.00
3294;BME280;1659;51.470;6.770;2023-05-11T04:34:42;101243.88;;;12.49;100.00
3294;BME280;1659;51.470;6.770;2023-05-11T04:37:08;101254.44;;;12.51;100.00
3294;BME280;1659;51.470;6.770;2023-05-11T04:39:35;101261.50;;;12.52;100.00
3294;BME280;1659;51.470;6.770;2023-05-11T04:42:01;101257.06;;;12.52;100.00
3294;BME280;1659;51.470;6.770;2023-05-11T04:44:28;101262.31;;;12.55;100.00
3294;BME280;1659;51.470;6.770;2023-05-11T04:46:55;101267.56;;;12.60;100.00
3294;BME280;1659;51.470;6.770;2023-05-11T04:49:21;101260.34;;;12.65;100.00
3294;BME280;1659;51.470;6.770;2023-05-11T04:51:49;101265.59;;;12.70;100.00
3294;BME280;1659;51.470;6.770;2023-05-11T04:54:16;101263.75;;;12.73;100.00
3294;BME280;1659;51.470;6.770;2023-05-11T04:56:42;101269.81;;;12.78;100.00
3294;BME280;1659;51.470;6.770;2023-05-11T04:59:09;101269.75;;;12.83;100.00
3294;BME280;1659;51.470;6.770;2023-05-11T05:01:36;101268.78;;;12.85;100.00
3294;BME280;1659;51.470;6.770;2023-05-11T05:04:02;101274.03;;;12.89;100.00
3294;BME280;1659;51.470;6.770;2023-05-11T05:06:29;101271.34;;;12.92;100.00
3294;BME280;1659;51.470;6.770;2023-05-11T05:08:57;101272.19;;;12.94;100.00
3294;BME280;1659;51.470;6.770;2023-05-11T05:11:24;101279.25;;;12.95;100.00
3294;BME280;1659;51.470;6.770;2023-05-11T05:13:50;101277.41;;;12.98;100.00
3294;BME280;1659;51.470;6.770;2023-05-11T05:16:17;101283.53;;;13.00;100.00
3294;BME280;1659;51.470;6.770;2023-05-11T05:18:44;101285.28;;;13.01;100.00
3294;BME280;1659;51.470;6.770;2023-05-11T05:21:10;101286.97;;;13.06;100.00
3294;BME280;1659;51.470;6.770;2023-05-11T05:23:37;101291.31;;;13.10;100.00
3294;BME280;1659;51.470;6.770;2023-05-11T05:26:05;101288.63;;;13.11;100.00
3294;BME280;1659;51.470;6.770;2023-05-11T05:28:31;101299.19;;;13.14;100.00
3294;BME280;1659;51.470;6.770;2023-05-11T05:31:00;101293.75;;;13.19;100.00
3294;BME280;1659;51.470;6.770;2023-05-11T05:33:26;101291.00;;;13.23;100.00
3294;BME280;1659;51.470;6.770;2023-05-11T05:35:53;101298.91;;;13.27;100.00
3294;BME280;1659;51.470;6.770;2023-05-11T05:38:19;101298.88;;;13.28;100.00
3294;BME280;1659;51.470;6.770;2023-05-11T05:40:46;101305.91;;;13.32;100.00
3294;BME280;1659;51.470;6.770;2023-05-11T05:43:14;101304.91;;;13.36;100.00
3294;BME280;1659;51.470;6.770;2023-05-11T05:45:40;101304.00;;;13.39;100.00
3294;BME280;1659;51.470;6.770;2023-05-11T05:48:07;101311.97;;;13.39;100.00
3294;BME280;1659;51.470;6.770;2023-05-11T05:50:34;101311.09;;;13.38;100.00
3294;BME280;1659;51.470;6.770;2023-05-11T05:53:00;101312.84;;;13.38;100.00
3294;BME280;1659;51.470;6.770;2023-05-11T05:55:27;101322.53;;;13.40;100.00
3294;BME280;1659;51.470;6.770;2023-05-11T05:57:53;101320.72;;;13.43;100.00
3294;BME280;1659;51.470;6.770;2023-05-11T06:00:21;101322.41;;;13.45;100.00
3294;BME280;1659;51.470;6.770;2023-05-11T06:02:48;101324.22;;;13.45;100.00
3294;BME280;1659;51.470;6.770;2023-05-11T06:05:15;101327.72;;;13.45;100.00
3294;BME280;1659;51.470;6.770;2023-05-11T06:07:41;101329.50;;;13.46;100.00
3294;BME280;1659;51.470;6.770;2023-05-11T06:10:08;101337.44;;;13.48;100.00
3294;BME280;1659;51.470;6.770;2023-05-11T06:12:34;101335.59;;;13.50;100.00
3294;BME280;1659;51.470;6.770;2023-05-11T06:15:01;101334.66;;;13.52;100.00
3294;BME280;1659;51.470;6.770;2023-05-11T06:17:29;101334.56;;;13.57;100.00
3294;BME280;1659;51.470;6.770;2023-05-11T06:19:56;101327.38;;;13.62;100.00
3294;BME280;1659;51.470;6.770;2023-05-11T06:22:22;101328.19;;;13.64;100.00
3294;BME280;1659;51.470;6.770;2023-05-11T06:24:49;101329.03;;;13.66;100.00
3294;BME280;1659;51.470;6.770;2023-05-11T06:27:15;101326.25;;;13.72;100.00
3294;BME280;1659;51.470;6.770;2023-05-11T06:29:42;101319.78;;;13.84;100.00
3294;BME280;1659;51.470;6.770;2023-05-11T06:32:08;101313.75;;;14.13;100.00
3294;BME280;1659;51.470;6.770;2023-05-11T06:34:36;101319.59;;;14.64;100.00
3294;BME280;1659;51.470;6.770;2023-05-11T06:37:03;101310.06;;;15.19;98.65
3294;BME280;1659;51.470;6.770;2023-05-11T06:39:30;101306.19;;;15.89;96.52
3294;BME280;1659;51.470;6.770;2023-05-11T06:41:56;101308.38;;;16.82;93.38
3294;BME280;1659;51.470;6.770;2023-05-11T06:44:23;101309.56;;;17.69;90.84
3294;BME280;1659;51.470;6.770;2023-05-11T06:46:49;101299.69;;;18.36;89.17
3294;BME280;1659;51.470;6.770;2023-05-11T06:49:16;101304.38;;;18.92;88.15
3294;BME280;1659;51.470;6.770;2023-05-11T06:51:44;101301.19;;;19.42;86.83
3294;BME280;1659;51.470;6.770;2023-05-11T06:54:10;101306.56;;;19.80;86.46
3294;BME280;1659;51.470;6.770;2023-05-11T06:56:37;101306.47;;;19.63;87.13
3294;BME280;1659;51.470;6.770;2023-05-11T06:59:03;101310.97;;;19.24;88.54
3294;BME280;1659;51.470;6.770;2023-05-11T07:01:30;101310.69;;;18.91;89.68
3294;BME280;1659;51.470;6.770;2023-05-11T07:03:57;101307.59;;;19.00;90.49
3294;BME280;1659;51.470;6.770;2023-05-11T07:06:23;101306.94;;;18.95;89.02
3294;BME280;1659;51.470;6.770;2023-05-11T07:08:51;101308.72;;;18.74;89.36
3294;BME280;1659;51.470;6.770;2023-05-11T07:11:17;101310.00;;;18.65;90.45
3294;BME280;1659;51.470;6.770;2023-05-11T07:13:44;101308.88;;;19.31;88.83
3294;BME280;1659;51.470;6.770;2023-05-11T07:16:11;101309.16;;;20.18;85.66
3294;BME280;1659;51.470;6.770;2023-05-11T07:18:37;101304.13;;;20.98;82.60
3294;BME280;1659;51.470;6.770;2023-05-11T07:21:04;101301.31;;;21.50;80.14
3294;BME280;1659;51.470;6.770;2023-05-11T07:23:30;101305.25;;;21.91;78.96
3294;BME280;1659;51.470;6.770;2023-05-11T07:25:58;101310.00;;;22.18;77.73
3294;BME280;1659;51.470;6.770;2023-05-11T07:28:26;101292.84;;;22.51;77.76
3294;BME280;1659;51.470;6.770;2023-05-11T07:30:52;101308.56;;;22.12;78.87
3294;BME280;1659;51.470;6.770;2023-05-11T07:33:19;101306.50;;;21.54;80.68
3294;BME280;1659;51.470;6.770;2023-05-11T07:35:45;101312.13;;;21.65;80.89
3294;BME280;1659;51.470;6.770;2023-05-11T07:38:12;101308.59;;;21.64;79.19
3294;BME280;1659;51.470;6.770;2023-05-11T07:40:38;101312.03;;;21.01;80.55
3294;BME280;1659;51.470;6.770;2023-05-11T07:43:06;101313.56;;;20.37;81.52
3294;BME280;1659;51.470;6.770;2023-05-11T07:45:33;101324.22;;;19.85;83.65
3294;BME280;1659;51.470;6.770;2023-05-11T07:47:59;101323.41;;;19.44;84.46
3294;BME280;1659;51.470;6.770;2023-05-11T07:50:26;101323.19;;;19.11;85.37
3294;BME280;1659;51.470;6.770;2023-05-11T07:52:52;101325.41;;;18.81;85.76
3294;BME280;1659;51.470;6.770;2023-05-11T07:55:19;101322.59;;;18.63;85.75
3294;BME280;1659;51.470;6.770;2023-05-11T07:57:49;101320.72;;;18.65;85.05
3294;BME280;1659;51.470;6.770;2023-05-11T08:00:17;101320.38;;;19.14;83.11
3294;BME280;1659;51.470;6.770;2023-05-11T08:02:44;101314.94;;;19.92;80.69
3294;BME280;1659;51.470;6.770;2023-05-11T08:05:11;101307.25;;;20.21;79.72
3294;BME280;1659;51.470;6.770;2023-05-11T08:07:38;101317.84;;;20.24;79.74
3294;BME280;1659;51.470;6.770;2023-05-11T08:10:05;101313.34;;;20.24;79.29
3294;BME280;1659;51.470;6.770;2023-05-11T08:12:32;101317.75;;;20.08;79.35
3294;BME280;1659;51.470;6.770;2023-05-11T08:14:59;101316.75;;;19.91;80.18
3294;BME280;1659;51.470;6.770;2023-05-11T08:17:27;101323.75;;;19.76;79.94
3294;BME280;1659;51.470;6.770;2023-05-11T08:19:54;101318.19;;;19.60;80.59
3294;BME280;1659;51.470;6.770;2023-05-11T08:22:20;101315.25;;;19.48;81.25
3294;BME280;1659;51.470;6.770;2023-05-11T08:24:48;101316.75;;;19.34;81.54
3294;BME280;1659;51.470;6.770;2023-05-11T08:27:15;101314.75;;;19.20;81.76
3294;BME280;1659;51.470;6.770;2023-05-11T08:29:41;101323.41;;;19.07;81.86
3294;BME280;1659;51.470;6.770;2023-05-11T08:32:08;101329.16;;;18.97;82.01
3294;BME280;1659;51.470;6.770;2023-05-11T08:34:36;101327.91;;;18.85;82.03
3294;BME280;1659;51.470;6.770;2023-05-11T08:37:02;101325.00;;;18.69;82.08
3294;BME280;1659;51.470;6.770;2023-05-11T08:39:31;101322.06;;;18.55;82.14
3294;BME280;1659;51.470;6.770;2023-05-11T08:41:58;101322.72;;;18.40;82.37
3294;BME280;1659;51.470;6.770;2023-05-11T08:44:28;101317.88;;;18.27;82.32
3294;BME280;1659;51.470;6.770;2023-05-11T08:46:56;101316.34;;;18.22;82.41
3294;BME280;1659;51.470;6.770;2023-05-11T08:49:24;101327.22;;;18.17;82.46
3294;BME280;1659;51.470;6.770;2023-05-11T08:51:53;101326.81;;;18.06;82.32
3294;BME280;1659;51.470;6.770;2023-05-11T08:54:20;101328.75;;;18.02;82.20
3294;BME280;1659;51.470;6.770;2023-05-11T08:56:48;101332.34;;;18.01;82.16
3294;BME280;1659;51.470;6.770;2023-05-11T08:59:17;101330.97;;;17.91;82.25
3294;BME280;1659;51.470;6.770;2023-05-11T09:01:44;101327.94;;;17.77;82.27
3294;BME280;1659;51.470;6.770;2023-05-11T09:04:12;101331.97;;;17.65;82.70
3294;BME280;1659;51.470;6.770;2023-05-11T09:06:40;101341.47;;;17.50;82.53
3294;BME280;1659;51.470;6.770;2023-05-11T09:09:08;101340.06;;;17.40;82.63
3294;BME280;1659;51.470;6.770;2023-05-11T09:11:35;101328.94;;;17.28;82.82
3294;BME280;1659;51.470;6.770;2023-05-11T09:14:01;101347.16;;;17.17;82.75
3294;BME280;1659;51.470;6.770;2023-05-11T09:16:28;101341.41;;;17.04;82.75
3294;BME280;1659;51.470;6.770;2023-05-11T09:18:58;101348.09;;;16.91;82.85
3294;BME280;1659;51.470;6.770;2023-05-11T09:21:25;101341.19;;;16.85;82.88
3294;BME280;1659;51.470;6.770;2023-05-11T09:23:54;101344.03;;;16.79;82.77
3294;BME280;1659;51.470;6.770;2023-05-11T09:26:24;101344.97;;;16.78;82.72
3294;BME280;1659;51.470;6.770;2023-05-11T09:28:54;101340.78;;;16.71;82.49
3294;BME280;1659;51.470;6.770;2023-05-11T09:31:37;101337.31;;;16.69;82.07
3294;BME280;1659;51.470;6.770;2023-05-11T09:34:14;101339.41;;;16.59;82.11
3294;BME280;1659;51.470;6.770;2023-05-11T09:36:42;101349.41;;;16.52;82.37
3294;BME280;1659;51.470;6.770;2023-05-11T09:39:08;101342.69;;;16.40;82.53
3294;BME280;1659;51.470;6.770;2023-05-11T09:41:36;101339.63;;;16.26;82.81
3294;BME280;1659;51.470;6.770;2023-05-11T09:44:07;101336.50;;;16.13;83.07
3294;BME280;1659;51.470;6.770;2023-05-11T09:46:35;101344.00;;;16.00;83.41
3294;BME280;1659;51.470;6.770;2023-05-11T09:49:02;101346.06;;;15.92;83.46
3294;BME280;1659;51.470;6.770;2023-05-11T09:51:30;101345.44;;;15.84;83.75
3294;BME280;1659;51.470;6.770;2023-05-11T09:53:57;101347.47;;;15.74;84.05
3294;BME280;1659;51.470;6.770;2023-05-11T09:56:45;101356.63;;;15.65;84.37
3294;BME280;1659;51.470;6.770;2023-05-11T09:59:14;101349.06;;;15.52;84.60
3294;BME280;1659;51.470;6.770;2023-05-11T10:01:41;101354.81;;;15.38;85.07
3294;BME280;1659;51.470;6.770;2023-05-11T10:04:08;101358.53;;;15.30;85.49
3294;BME280;1659;51.470;6.770;2023-05-11T10:06:46;101359.59;;;15.25;85.69
3294;BME280;1659;51.470;6.770;2023-05-11T10:09:14;101349.09;;;15.20;86.04
3294;BME280;1659;51.470;6.770;2023-05-11T10:11:44;101348.34;;;15.15;86.31
3294;BME280;1659;51.470;6.770;2023-05-11T10:14:13;101343.13;;;15.12;86.47
3294;BME280;1659;51.470;6.770;2023-05-11T10:16:41;101354.59;;;15.14;86.78
3294;BME280;1659;51.470;6.770;2023-05-11T10:19:09;101347.47;;;15.15;86.82
3294;BME280;1659;51.470;6.770;2023-05-11T10:21:36;101347.50;;;15.13;87.07
3294;BME280;1659;51.470;6.770;2023-05-11T10:24:04;101351.91;;;15.14;87.39
3294;BME280;1659;51.470;6.770;2023-05-11T10:26:32;101353.47;;;15.21;87.41
3294;BME280;1659;51.470;6.770;2023-05-11T10:28:59;101342.69;;;15.27;87.38
3294;BME280;1659;51.470;6.770;2023-05-11T10:31:27;101350.38;;;15.37;87.39
3294;BME280;1659;51.470;6.770;2023-05-11T10:33:54;101341.16;;;15.48;87.17
3294;BME280;1659;51.470;6.770;2023-05-11T10:36:22;101340.84;;;15.59;87.24
3294;BME280;1659;51.470;6.770;2023-05-11T10:38:49;101344.03;;;15.71;87.04
3294;BME280;1659;51.470;6.770;2023-05-11T10:44:22;101337.47;;;16.11;86.48
3294;BME280;1659;51.470;6.770;2023-05-11T10:47:10;101336.81;;;16.31;86.29
3294;BME280;1659;51.470;6.770;2023-05-11T10:50:14;101332.69;;;16.47;85.83
3294;BME280;1659;51.470;6.770;2023-05-11T10:52:59;101330.22;;;16.68;85.96
3294;BME280;1659;51.470;6.770;2023-05-11T10:55:38;101338.19;;;16.94;86.02
3294;BME280;1659;51.470;6.770;2023-05-11T10:58:09;101331.63;;;17.28;85.36
3294;BME280;1659;51.470;6.770;2023-05-11T11:03:38;101331.16;;;18.08;84.01
3294;BME280;1659;51.470;6.770;2023-05-11T11:06:20;101330.50;;;18.24;84.23
3294;BME280;1659;51.470;6.770;2023-05-11T11:08:55;101330.22;;;18.32;84.16
3294;BME280;1659;51.470;6.770;2023-05-11T11:11:33;101323.72;;;18.37;84.55
3294;BME280;1659;51.470;6.770;2023-05-11T11:14:01;101325.47;;;18.38;83.48
3294;BME280;1659;51.470;6.770;2023-05-11T11:16:30;101322.59;;;18.43;84.17
3294;BME280;1659;51.470;6.770;2023-05-11T11:22:01;101323.53;;;18.42;84.67
3294;BME280;1659;51.470;6.770;2023-05-11T11:24:42;101322.91;;;18.35;85.03
3294;BME280;1659;51.470;6.770;2023-05-11T11:27:08;101329.53;;;18.26;85.33
3294;BME280;1659;51.470;6.770;2023-05-11T11:29:36;101324.94;;;18.08;85.51
3294;BME280;1659;51.470;6.770;2023-05-11T11:32:24;101321.03;;;17.95;85.58
3294;BME280;1659;51.470;6.770;2023-05-11T11:34:52;101320.50;;;17.85;86.02
3294;BME280;1659;51.470;6.770;2023-05-11T11:37:20;101322.72;;;17.73;86.09
3294;BME280;1659;51.470;6.770;2023-05-11T11:39:54;101327.41;;;17.68;86.10
3294;BME280;1659;51.470;6.770;2023-05-11T11:42:35;101321.28;;;17.65;85.80
3294;BME280;1659;51.470;6.770;2023-05-11T11:45:29;101328.84;;;17.53;85.60
3294;BME280;1659;51.470;6.770;2023-05-11T11:48:14;101331.59;;;17.52;85.46
3294;BME280;1659;51.470;6.770;2023-05-11T11:50:44;101328.28;;;17.45;85.23
3294;BME280;1659;51.470;6.770;2023-05-11T11:56:37;101323.53;;;17.30;85.45
3294;BME280;1659;51.470;6.770;2023-05-11T11:59:04;101332.19;;;17.13;85.61
3294;BME280;1659;51.470;6.770;2023-05-11T12:01:35;101337.88;;;17.04;86.09
3294;BME280;1659;51.470;6.770;2023-05-11T12:06:57;101330.81;;;17.01;86.36
3294;BME280;1659;51.470;6.770;2023-05-11T12:09:25;101333.66;;;16.96;86.46
3294;BME280;1659;51.470;6.770;2023-05-11T12:11:53;101327.44;;;16.96;86.69
3294;BME280;1659;51.470;6.770;2023-05-11T12:14:20;101325.59;;;16.98;86.69
3294;BME280;1659;51.470;6.770;2023-05-11T12:17:02;101323.56;;;17.05;86.44
3294;BME280;1659;51.470;6.770;2023-05-11T12:19:29;101328.69;;;17.11;86.57
3294;BME280;1659;51.470;6.770;2023-05-11T12:21:56;101320.50;;;17.15;86.45
3294;BME280;1659;51.470;6.770;2023-05-11T12:24:22;101318.63;;;17.17;86.58
3294;BME280;1659;51.470;6.770;2023-05-11T12:26:54;101318.53;;;17.21;86.75
3294;BME280;1659;51.470;6.770;2023-05-11T12:29:20;101322.00;;;17.23;86.78
3294;BME280;1659;51.470;6.770;2023-05-11T12:31:47;101327.44;;;17.21;86.94
3294;BME280;1659;51.470;6.770;2023-05-11T12:34:14;101313.19;;;17.21;87.14
3294;BME280;1659;51.470;6.770;2023-05-11T12:36:43;101318.53;;;17.21;87.11
3294;BME280;1659;51.470;6.770;2023-05-11T12:39:16;101317.56;;;17.23;87.25
3294;BME280;1659;51.470;6.770;2023-05-11T12:41:43;101314.69;;;17.28;87.40
3294;BME280;1659;51.470;6.770;2023-05-11T12:44:14;101305.66;;;17.32;87.28
3294;BME280;1659;51.470;6.770;2023-05-11T12:46:41;101304.38;;;17.42;87.25
3294;BME280;1659;51.470;6.770;2023-05-11T12:49:09;101292.94;;;17.61;87.09
3294;BME280;1659;51.470;6.770;2023-05-11T12:51:43;101290.53;;;17.77;86.64
3294;BME280;1659;51.470;6.770;2023-05-11T12:54:10;101288.34;;;17.88;86.91
3294;BME280;1659;51.470;6.770;2023-05-11T12:56:47;101285.59;;;17.89;87.01
3294;BME280;1659;51.470;6.770;2023-05-11T12:59:26;101288.81;;;17.98;86.88
3294;BME280;1659;51.470;6.770;2023-05-11T13:01:53;101294.03;;;18.01;87.10
3294;BME280;1659;51.470;6.770;2023-05-11T13:04:27;101291.25;;;18.04;87.11
3294;BME280;1659;51.470;6.770;2023-05-11T13:06:54;101289.25;;;18.09;87.09
3294;BME280;1659;51.470;6.770;2023-05-11T13:09:21;101285.44;;;18.15;86.92
3294;BME280;1659;51.470;6.770;2023-05-11T13:11:48;101279.69;;;18.24;86.69
3294;BME280;1659;51.470;6.770;2023-05-11T13:14:15;101281.25;;;18.29;86.56
3294;BME280;1659;51.470;6.770;2023-05-11T13:16:52;101280.91;;;18.37;86.22
3294;BME280;1659;51.470;6.770;2023-05-11T13:19:26;101281.53;;;18.44;85.97
3294;BME280;1659;51.470;6.770;2023-05-11T13:21:53;101287.59;;;18.47;86.01
3294;BME280;1659;51.470;6.770;2023-05-11T13:24:20;101286.47;;;18.53;86.33
3294;BME280;1659;51.470;6.770;2023-05-11T13:26:47;101284.78;;;18.71;85.84
3294;BME280;1659;51.470;6.770;2023-05-11T13:29:13;101286.47;;;18.94;85.53